createdAt,value
2022-12-19T00:00:15.075Z,7.61
2022-12-19T00:01:14.606Z,7.24
2022-12-19T00:02:17.415Z,6.12
2022-12-19T00:03:20.226Z,6.81
2022-12-19T00:04:23.025Z,7.14
2022-12-19T00:05:25.590Z,6.71
2022-12-19T00:06:28.573Z,6.22
2022-12-19T00:07:39.023Z,6.02
2022-12-19T00:08:41.690Z,6.15
2022-12-19T00:09:44.359Z,7.78
2022-12-19T00:10:47.135Z,6.99
2022-12-19T00:11:51.548Z,7.16
2022-12-19T00:12:54.624Z,6.72
2022-12-19T00:13:57.498Z,6.46
2022-12-19T00:15:00.274Z,6.74
2022-12-19T00:16:04.732Z,6.99
2022-12-19T00:17:07.557Z,6.77
2022-12-19T00:18:10.856Z,6.51
2022-12-19T00:19:13.818Z,6.45
2022-12-19T00:20:18.506Z,6.78
2022-12-19T00:21:21.099Z,7.24
2022-12-19T00:22:23.979Z,8.19
2022-12-19T00:23:27.168Z,6.84
2022-12-19T00:24:30.048Z,7.23
2022-12-19T00:25:32.808Z,7.92
2022-12-19T00:26:36.396Z,7.78
2022-12-19T00:27:39.271Z,7.25
2022-12-19T00:28:42.249Z,6.68
2022-12-19T00:29:45.123Z,7.52
2022-12-19T00:30:48.097Z,7.79
2022-12-19T00:31:51.158Z,7.02
2022-12-19T00:32:54.053Z,7.14
2022-12-19T00:33:57.649Z,6.55
2022-12-19T00:35:01.152Z,6.87
2022-12-19T00:36:04.626Z,6.81
2022-12-19T00:37:07.497Z,6.69
2022-12-19T00:38:10.381Z,7.39
2022-12-19T00:39:13.246Z,7.25
2022-12-19T00:40:16.326Z,6.85
2022-12-19T00:41:19.505Z,6.72
2022-12-19T00:42:22.396Z,7.24
2022-12-19T00:43:25.273Z,7.38
2022-12-19T00:44:28.246Z,7.32
2022-12-19T00:45:31.164Z,6.92
2022-12-19T00:46:33.988Z,7.53
2022-12-19T00:47:36.556Z,7.03
2022-12-19T00:48:39.223Z,6.92
2022-12-19T00:49:42.194Z,7.22
2022-12-19T00:50:46.411Z,6.30
2022-12-19T00:51:48.877Z,6.70
2022-12-19T00:52:51.551Z,6.16
2022-12-19T00:53:54.310Z,7.24
2022-12-19T00:54:57.424Z,6.05
2022-12-19T00:56:00.160Z,6.62
2022-12-19T00:57:03.040Z,7.27
2022-12-19T00:58:05.923Z,6.40
2022-12-19T00:59:08.789Z,6.88
2022-12-19T01:00:11.769Z,6.54
2022-12-19T01:01:14.733Z,6.23
2022-12-19T01:02:17.711Z,6.75
2022-12-19T01:03:20.676Z,6.65
2022-12-19T01:04:28.493Z,7.15
2022-12-19T01:05:27.880Z,6.80
2022-12-19T01:06:31.176Z,6.23
2022-12-19T01:07:34.551Z,5.88
2022-12-19T01:08:37.431Z,6.58
2022-12-19T01:09:40.307Z,6.58
2022-12-19T01:10:43.387Z,7.76
2022-12-19T01:11:46.156Z,6.96
2022-12-19T01:12:48.926Z,6.39
2022-12-19T01:13:52.936Z,6.80
2022-12-19T01:14:56.397Z,6.96
2022-12-19T01:16:00.176Z,7.04
2022-12-19T01:17:02.774Z,7.95
2022-12-19T01:18:05.545Z,7.22
2022-12-19T01:19:08.327Z,6.80
2022-12-19T01:20:11.195Z,7.24
2022-12-19T01:21:14.406Z,7.09
2022-12-19T01:22:17.146Z,7.21
2022-12-19T01:23:20.157Z,7.75
2022-12-19T01:24:23.102Z,7.37
2022-12-19T01:25:25.976Z,7.45
2022-12-19T01:26:29.058Z,7.36
2022-12-19T01:27:31.833Z,7.62
2022-12-19T01:28:34.501Z,7.90
2022-12-19T01:29:42.791Z,7.41
2022-12-19T01:30:41.272Z,7.01
2022-12-19T01:31:44.519Z,6.94
2022-12-19T01:32:47.119Z,7.33
2022-12-19T01:33:49.800Z,7.40
2022-12-19T01:34:52.977Z,6.99
2022-12-19T01:35:55.540Z,7.48
2022-12-19T01:36:58.417Z,6.66
2022-12-19T01:38:07.956Z,6.81
2022-12-19T01:39:05.190Z,6.29
2022-12-19T01:40:07.860Z,6.45
2022-12-19T01:41:10.424Z,6.87
2022-12-19T01:42:13.297Z,5.90
2022-12-19T01:43:15.970Z,6.87
2022-12-19T01:44:18.537Z,7.41
2022-12-19T01:45:21.214Z,6.41
2022-12-19T01:46:23.906Z,6.20
2022-12-19T01:47:28.198Z,6.93
2022-12-19T01:48:30.751Z,7.14
2022-12-19T01:49:33.423Z,6.76
2022-12-19T01:50:36.095Z,7.24
2022-12-19T01:51:38.760Z,6.95
2022-12-19T01:52:41.540Z,6.26
2022-12-19T01:53:48.258Z,6.03
2022-12-19T01:54:48.819Z,6.27
2022-12-19T01:55:51.595Z,7.29
2022-12-19T01:56:54.537Z,6.69
2022-12-19T01:57:57.421Z,7.05
2022-12-19T01:59:06.526Z,6.75
2022-12-19T02:00:04.745Z,6.50
2022-12-19T02:01:07.636Z,6.25
2022-12-19T02:02:10.524Z,6.82
2022-12-19T02:03:13.471Z,6.20
2022-12-19T02:04:16.298Z,6.70
2022-12-19T02:05:19.173Z,6.63
2022-12-19T02:06:22.050Z,7.04
2022-12-19T02:07:24.622Z,5.94
2022-12-19T02:08:27.592Z,7.15
2022-12-19T02:09:32.106Z,7.03
2022-12-19T02:10:34.982Z,6.90
2022-12-19T02:11:37.863Z,7.08
2022-12-19T02:12:40.526Z,7.29
2022-12-19T02:13:43.591Z,7.17
2022-12-19T02:14:48.024Z,6.93
2022-12-19T02:15:51.097Z,6.58
2022-12-19T02:16:53.834Z,7.34
2022-12-19T02:17:56.536Z,7.59
2022-12-19T02:18:59.518Z,7.25
2022-12-19T02:20:02.085Z,7.52
2022-12-19T02:21:04.773Z,7.17
2022-12-19T02:22:07.483Z,7.40
2022-12-19T02:23:09.999Z,7.64
2022-12-19T02:24:14.202Z,7.86
2022-12-19T02:25:16.869Z,7.55
2022-12-19T02:26:19.748Z,7.03
2022-12-19T02:27:22.623Z,7.28
2022-12-19T02:28:25.411Z,7.75
2022-12-19T02:29:28.474Z,7.20
2022-12-19T02:30:31.498Z,6.93
2022-12-19T02:31:34.320Z,6.56
2022-12-19T02:32:37.105Z,6.91
2022-12-19T02:33:39.870Z,7.47
2022-12-19T02:34:44.676Z,6.85
2022-12-19T02:35:47.681Z,7.06
2022-12-19T02:36:50.454Z,7.38
2022-12-19T02:37:54.242Z,7.12
2022-12-19T02:38:58.665Z,6.84
2022-12-19T02:40:01.770Z,7.02
2022-12-19T02:41:04.707Z,6.89
2022-12-19T02:42:07.593Z,6.71
2022-12-19T02:43:10.371Z,6.52
2022-12-19T02:44:13.234Z,6.10
2022-12-19T02:45:22.735Z,6.47
2022-12-19T02:46:20.911Z,5.71
2022-12-19T02:47:23.814Z,5.80
2022-12-19T02:48:26.677Z,4.93
2022-12-19T02:49:30.583Z,4.86
2022-12-19T02:50:34.075Z,5.34
2022-12-19T02:51:36.957Z,5.35
2022-12-19T02:52:39.713Z,5.64
2022-12-19T02:53:42.623Z,5.83
2022-12-19T02:54:45.772Z,4.50
2022-12-19T02:55:49.272Z,4.90
2022-12-19T02:56:52.243Z,5.14
2022-12-19T02:57:55.023Z,5.29
2022-12-19T02:58:57.785Z,5.87
2022-12-19T03:00:00.368Z,5.73
2022-12-19T03:01:04.789Z,5.12
2022-12-19T03:02:07.613Z,5.95
2022-12-19T03:03:10.602Z,5.93
2022-12-19T03:04:13.292Z,5.09
2022-12-19T03:05:16.597Z,5.22
2022-12-19T03:06:20.268Z,5.40
2022-12-19T03:07:22.944Z,5.34
2022-12-19T03:08:25.609Z,5.09
2022-12-19T03:09:28.290Z,5.06
2022-12-19T03:10:31.151Z,5.18
2022-12-19T03:11:34.231Z,5.27
2022-12-19T03:12:37.130Z,5.12
2022-12-19T03:13:40.000Z,5.13
2022-12-19T03:14:42.753Z,5.42
2022-12-19T03:15:45.528Z,4.85
2022-12-19T03:16:48.770Z,5.36
2022-12-19T03:17:51.595Z,5.01
2022-12-19T03:18:54.873Z,5.88
2022-12-19T03:19:57.741Z,5.36
2022-12-19T03:21:00.528Z,5.04
2022-12-19T03:22:03.594Z,5.78
2022-12-19T03:23:06.265Z,5.28
2022-12-19T03:24:10.173Z,5.31
2022-12-19T03:25:13.073Z,5.37
2022-12-19T03:26:15.613Z,4.95
2022-12-19T03:27:18.613Z,5.32
2022-12-19T03:28:21.363Z,5.79
2022-12-19T03:29:24.129Z,5.95
2022-12-19T03:30:27.039Z,5.92
2022-12-19T03:31:29.888Z,5.86
2022-12-19T03:32:32.878Z,5.55
2022-12-19T03:33:35.629Z,5.80
2022-12-19T03:34:38.404Z,5.51
2022-12-19T03:35:41.505Z,5.37
2022-12-19T03:36:44.581Z,5.35
2022-12-19T03:37:47.535Z,5.67
2022-12-19T03:38:50.414Z,5.59
2022-12-19T03:39:53.287Z,5.75
2022-12-19T03:40:56.275Z,6.13
2022-12-19T03:41:59.053Z,7.01
2022-12-19T03:43:02.122Z,6.31
2022-12-19T03:44:05.209Z,6.43
2022-12-19T03:45:08.073Z,7.09
2022-12-19T03:46:11.172Z,7.18
2022-12-19T03:47:14.243Z,6.80
2022-12-19T03:48:17.104Z,6.57
2022-12-19T03:49:19.980Z,6.49
2022-12-19T03:50:22.752Z,6.78
2022-12-19T03:51:25.627Z,6.05
2022-12-19T03:52:28.505Z,5.49
2022-12-19T03:53:31.506Z,5.72
2022-12-19T03:54:34.053Z,6.48
2022-12-19T03:55:36.719Z,6.50
2022-12-19T03:56:39.287Z,6.16
2022-12-19T03:57:41.972Z,5.44
2022-12-19T03:58:44.624Z,6.31
2022-12-19T03:59:47.189Z,6.25
2022-12-19T04:00:49.768Z,6.84
2022-12-19T04:01:52.576Z,6.32
2022-12-19T04:02:55.404Z,6.49
2022-12-19T04:03:58.382Z,6.55
2022-12-19T04:05:01.156Z,5.42
2022-12-19T04:06:04.132Z,5.92
2022-12-19T04:07:07.019Z,6.14
2022-12-19T04:08:09.988Z,6.04
2022-12-19T04:09:16.776Z,6.08
2022-12-19T04:10:17.887Z,6.01
2022-12-19T04:11:20.787Z,5.75
2022-12-19T04:12:23.743Z,5.30
2022-12-19T04:13:26.511Z,5.25
2022-12-19T04:14:29.491Z,5.27
2022-12-19T04:15:32.519Z,5.50
2022-12-19T04:16:36.055Z,5.36
2022-12-19T04:17:39.134Z,5.15
2022-12-19T04:18:41.911Z,6.00
2022-12-19T04:19:44.783Z,5.42
2022-12-19T04:20:47.659Z,5.39
2022-12-19T04:21:50.529Z,4.98
2022-12-19T04:22:53.301Z,5.74
2022-12-19T04:23:56.178Z,5.50
2022-12-19T04:24:59.255Z,5.60
2022-12-19T04:26:02.033Z,5.10
2022-12-19T04:27:04.601Z,5.34
2022-12-19T04:28:07.372Z,5.54
2022-12-19T04:29:10.243Z,6.08
2022-12-19T04:30:13.425Z,5.82
2022-12-19T04:31:16.395Z,5.90
2022-12-19T04:32:19.172Z,5.64
2022-12-19T04:33:22.050Z,5.78
2022-12-19T04:34:25.026Z,5.43
2022-12-19T04:35:28.218Z,5.59
2022-12-19T04:36:31.187Z,5.30
2022-12-19T04:37:34.062Z,5.55
2022-12-19T04:38:37.048Z,5.08
2022-12-19T04:39:39.813Z,5.76
2022-12-19T04:40:42.894Z,5.39
2022-12-19T04:41:45.766Z,5.05
2022-12-19T04:42:48.645Z,4.78
2022-12-19T04:43:52.436Z,5.35
2022-12-19T04:44:55.330Z,5.09
2022-12-19T04:45:58.032Z,4.88
2022-12-19T04:47:00.541Z,4.75
2022-12-19T04:48:03.267Z,5.58
2022-12-19T04:49:05.799Z,4.99
2022-12-19T04:50:08.446Z,5.44
2022-12-19T04:51:11.127Z,5.40
2022-12-19T04:52:14.018Z,5.49
2022-12-19T04:53:16.767Z,5.23
2022-12-19T04:54:19.540Z,5.53
2022-12-19T04:55:22.421Z,5.16
2022-12-19T04:56:25.395Z,5.12
2022-12-19T04:57:28.267Z,5.09
2022-12-19T04:58:30.939Z,5.27
2022-12-19T04:59:33.613Z,5.40
2022-12-19T05:00:36.280Z,5.04
2022-12-19T05:01:39.159Z,4.55
2022-12-19T05:02:41.983Z,5.49
2022-12-19T05:03:47.788Z,5.52
2022-12-19T05:04:49.001Z,5.14
2022-12-19T05:05:51.683Z,5.51
2022-12-19T05:06:54.242Z,5.68
2022-12-19T05:07:56.911Z,4.85
2022-12-19T05:08:59.476Z,5.05
2022-12-19T05:10:02.150Z,5.42
2022-12-19T05:11:04.815Z,5.35
2022-12-19T05:12:07.511Z,5.60
2022-12-19T05:13:09.951Z,5.23
2022-12-19T05:14:12.538Z,5.32
2022-12-19T05:15:15.195Z,5.30
2022-12-19T05:16:17.899Z,5.21
2022-12-19T05:17:20.639Z,5.16
2022-12-19T05:18:23.303Z,5.04
2022-12-19T05:19:25.978Z,4.54
2022-12-19T05:20:28.741Z,4.82
2022-12-19T05:21:31.410Z,4.47
2022-12-19T05:22:34.390Z,5.28
2022-12-19T05:23:36.977Z,5.65
2022-12-19T05:24:39.628Z,5.89
2022-12-19T05:25:42.210Z,5.25
2022-12-19T05:26:44.815Z,5.75
2022-12-19T05:27:47.430Z,5.72
2022-12-19T05:28:50.000Z,5.21
2022-12-19T05:29:52.673Z,4.76
2022-12-19T05:30:55.493Z,4.85
2022-12-19T05:31:58.442Z,5.82
2022-12-19T05:33:01.907Z,6.19
2022-12-19T05:34:04.779Z,5.52
2022-12-19T05:35:08.300Z,5.91
2022-12-19T05:36:11.304Z,5.28
2022-12-19T05:37:14.123Z,5.71
2022-12-19T05:38:17.410Z,5.73
2022-12-19T05:39:20.277Z,5.57
2022-12-19T05:40:23.158Z,5.81
2022-12-19T05:41:26.039Z,5.68
2022-12-19T05:42:28.905Z,5.79
2022-12-19T05:43:32.191Z,5.68
2022-12-19T05:44:35.064Z,5.35
2022-12-19T05:45:37.936Z,6.09
2022-12-19T05:46:40.777Z,5.88
2022-12-19T05:47:43.582Z,5.94
2022-12-19T05:48:46.772Z,6.13
2022-12-19T05:49:49.438Z,5.70
2022-12-19T05:50:52.316Z,5.98
2022-12-19T05:51:55.180Z,5.81
2022-12-19T05:52:58.056Z,5.45
2022-12-19T05:54:01.338Z,5.93
2022-12-19T05:55:04.223Z,6.59
2022-12-19T05:56:07.217Z,6.28
2022-12-19T05:57:11.406Z,6.81
2022-12-19T05:58:14.281Z,7.06
2022-12-19T05:59:17.966Z,6.48
2022-12-19T06:00:21.149Z,7.91
2022-12-19T06:01:24.188Z,6.96
2022-12-19T06:02:27.107Z,7.19
2022-12-19T06:03:30.067Z,7.40
2022-12-19T06:04:32.953Z,6.63
2022-12-19T06:05:35.829Z,7.38
2022-12-19T06:06:38.817Z,7.02
2022-12-19T06:07:41.677Z,7.08
2022-12-19T06:08:44.497Z,7.22
2022-12-19T06:09:47.341Z,7.72
2022-12-19T06:10:50.115Z,7.45
2022-12-19T06:11:52.972Z,7.25
2022-12-19T06:12:55.759Z,7.38
2022-12-19T06:13:58.430Z,8.18
2022-12-19T06:15:01.089Z,6.97
2022-12-19T06:16:03.817Z,7.37
2022-12-19T06:17:06.428Z,6.69
2022-12-19T06:18:09.203Z,7.85
2022-12-19T06:19:12.286Z,6.85
2022-12-19T06:20:14.842Z,6.67
2022-12-19T06:21:17.544Z,6.64
2022-12-19T06:22:20.491Z,6.25
2022-12-19T06:23:23.366Z,7.32
2022-12-19T06:24:26.343Z,6.79
2022-12-19T06:25:29.217Z,6.96
2022-12-19T06:26:31.994Z,6.78
2022-12-19T06:27:34.764Z,6.67
2022-12-19T06:28:37.538Z,6.86
2022-12-19T06:29:40.415Z,6.25
2022-12-19T06:30:43.597Z,6.61
2022-12-19T06:31:46.609Z,7.15
2022-12-19T06:32:49.442Z,7.27
2022-12-19T06:33:52.420Z,6.87
2022-12-19T06:35:04.152Z,6.61
2022-12-19T06:35:59.705Z,6.58
2022-12-19T06:37:07.852Z,6.08
2022-12-19T06:38:06.990Z,6.09
2022-12-19T06:39:09.969Z,6.30
2022-12-19T06:40:12.739Z,7.21
2022-12-19T06:41:16.014Z,7.05
2022-12-19T06:42:18.922Z,6.56
2022-12-19T06:43:21.670Z,6.47
2022-12-19T06:44:24.440Z,5.78
2022-12-19T06:45:27.370Z,6.62
2022-12-19T06:46:30.501Z,5.95
2022-12-19T06:47:33.475Z,7.09
2022-12-19T06:48:36.483Z,6.95
2022-12-19T06:49:39.323Z,6.82
2022-12-19T06:50:42.100Z,7.06
2022-12-19T06:51:44.973Z,6.18
2022-12-19T06:52:48.166Z,6.25
2022-12-19T06:53:50.926Z,6.79
2022-12-19T06:54:53.837Z,5.74
2022-12-19T06:55:56.673Z,5.82
2022-12-19T06:57:00.069Z,6.22
2022-12-19T06:58:03.036Z,5.76
2022-12-19T06:59:05.486Z,5.98
2022-12-19T07:00:08.386Z,6.13
2022-12-19T07:01:11.187Z,5.82
2022-12-19T07:02:14.298Z,5.51
2022-12-19T07:03:17.308Z,5.27
2022-12-19T07:04:20.092Z,5.22
2022-12-19T07:05:22.858Z,5.98
2022-12-19T07:06:25.629Z,5.82
2022-12-19T07:07:28.601Z,5.22
2022-12-19T07:08:31.473Z,5.71
2022-12-19T07:09:34.425Z,5.83
2022-12-19T07:10:37.310Z,5.22
2022-12-19T07:11:39.893Z,4.88
2022-12-19T07:12:42.898Z,4.83
2022-12-19T07:13:45.468Z,4.32
2022-12-19T07:14:53.119Z,4.71
2022-12-19T07:15:52.210Z,4.91
2022-12-19T07:16:54.787Z,5.02
2022-12-19T07:17:57.455Z,4.92
2022-12-19T07:19:00.029Z,4.98
2022-12-19T07:20:02.593Z,4.87
2022-12-19T07:21:05.271Z,4.99
2022-12-19T07:22:08.265Z,4.47
2022-12-19T07:23:11.207Z,4.86
2022-12-19T07:24:13.875Z,4.48
2022-12-19T07:25:16.874Z,5.08
2022-12-19T07:26:19.736Z,4.88
2022-12-19T07:27:22.507Z,5.64
2022-12-19T07:28:25.583Z,5.18
2022-12-19T07:29:28.355Z,4.62
2022-12-19T07:30:31.226Z,4.87
2022-12-19T07:31:34.167Z,5.21
2022-12-19T07:32:36.788Z,5.51
2022-12-19T07:33:39.847Z,5.45
2022-12-19T07:34:42.634Z,4.84
2022-12-19T07:35:45.705Z,5.11
2022-12-19T07:36:48.476Z,4.56
2022-12-19T07:37:51.050Z,5.47
2022-12-19T07:38:54.037Z,5.17
2022-12-19T07:39:56.591Z,5.24
2022-12-19T07:40:59.466Z,5.54
2022-12-19T07:42:02.255Z,5.66
2022-12-19T07:43:05.105Z,5.70
2022-12-19T07:44:08.097Z,4.99
2022-12-19T07:45:10.852Z,5.86
2022-12-19T07:46:13.830Z,5.79
2022-12-19T07:47:16.604Z,5.85
2022-12-19T07:48:19.478Z,5.95
2022-12-19T07:49:23.023Z,6.74
2022-12-19T07:50:25.951Z,5.49
2022-12-19T07:51:28.717Z,5.88
2022-12-19T07:52:31.701Z,6.29
2022-12-19T07:53:34.566Z,6.25
2022-12-19T07:54:37.448Z,6.59
2022-12-19T07:55:40.317Z,6.43
2022-12-19T07:56:43.220Z,6.75
2022-12-19T07:57:46.277Z,6.28
2022-12-19T07:58:49.429Z,6.05
2022-12-19T07:59:52.032Z,6.20
2022-12-19T08:00:54.874Z,5.22
2022-12-19T08:01:57.669Z,5.94
2022-12-19T08:03:00.520Z,5.55
2022-12-19T08:04:03.140Z,5.59
2022-12-19T08:05:05.783Z,6.03
2022-12-19T08:06:08.456Z,5.61
2022-12-19T08:07:11.123Z,5.33
2022-12-19T08:08:13.799Z,5.41
2022-12-19T08:09:16.468Z,5.62
2022-12-19T08:10:19.030Z,5.84
2022-12-19T08:11:21.712Z,5.76
2022-12-19T08:12:24.269Z,5.52
2022-12-19T08:13:30.034Z,5.22
2022-12-19T08:14:31.176Z,5.56
2022-12-19T08:15:33.811Z,5.00
2022-12-19T08:16:55.563Z,5.03
2022-12-19T08:17:40.744Z,5.44
2022-12-19T08:18:43.364Z,5.12
2022-12-19T08:19:46.047Z,5.57
2022-12-19T08:20:48.597Z,4.98
2022-12-19T08:21:51.290Z,4.97
2022-12-19T08:22:53.851Z,5.15
2022-12-19T08:23:56.398Z,5.19
2022-12-19T08:24:59.382Z,5.27
2022-12-19T08:26:02.361Z,5.11
2022-12-19T08:27:05.142Z,5.32
2022-12-19T08:28:08.021Z,5.25
2022-12-19T08:29:10.887Z,5.48
2022-12-19T08:30:13.657Z,5.25
2022-12-19T08:31:16.809Z,5.48
2022-12-19T08:32:21.543Z,5.48
2022-12-19T08:33:24.028Z,5.59
2022-12-19T08:34:26.786Z,5.15
2022-12-19T08:35:29.558Z,5.13
2022-12-19T08:36:32.435Z,5.71
2022-12-19T08:37:35.311Z,4.99
2022-12-19T08:38:38.287Z,4.81
2022-12-19T08:39:41.159Z,4.85
2022-12-19T08:40:47.372Z,5.36
2022-12-19T08:41:48.647Z,5.15
2022-12-19T08:42:51.561Z,5.35
2022-12-19T08:43:54.417Z,5.25
2022-12-19T08:44:57.186Z,5.51
2022-12-19T08:46:00.170Z,4.87
2022-12-19T08:47:03.250Z,4.77
2022-12-19T08:48:06.208Z,5.60
2022-12-19T08:49:08.878Z,5.39
2022-12-19T08:50:11.746Z,5.31
2022-12-19T08:51:14.647Z,4.90
2022-12-19T08:52:17.392Z,5.36
2022-12-19T08:53:25.804Z,5.15
2022-12-19T08:54:24.190Z,5.51
2022-12-19T08:55:28.321Z,5.95
2022-12-19T08:56:30.949Z,5.49
2022-12-19T08:57:33.629Z,5.66
2022-12-19T08:58:36.175Z,5.58
2022-12-19T08:59:38.756Z,5.70
2022-12-19T09:00:42.237Z,6.04
2022-12-19T09:01:45.058Z,6.15
2022-12-19T09:02:47.981Z,6.68
2022-12-19T09:05:01.603Z,5.78
2022-12-19T09:06:02.142Z,5.78
2022-12-19T09:06:07.025Z,5.86
2022-12-19T09:07:04.318Z,6.43
2022-12-19T09:08:07.065Z,6.14
2022-12-19T09:09:09.948Z,6.62
2022-12-19T09:10:12.821Z,6.50
2022-12-19T09:11:17.235Z,6.49
2022-12-19T09:12:20.460Z,6.36
2022-12-19T09:13:23.284Z,6.47
2022-12-19T09:14:26.155Z,7.03
2022-12-19T09:15:29.038Z,6.25
2022-12-19T09:16:31.852Z,6.15
2022-12-19T09:17:34.693Z,5.82
2022-12-19T09:18:37.557Z,6.95
2022-12-19T09:19:43.004Z,6.92
2022-12-19T09:20:44.950Z,6.71
2022-12-19T09:21:48.044Z,6.50
2022-12-19T09:22:50.904Z,6.62
2022-12-19T09:23:53.908Z,6.29
2022-12-19T09:24:56.749Z,7.32
2022-12-19T09:25:59.628Z,7.07
2022-12-19T09:27:02.407Z,6.72
2022-12-19T09:29:19.848Z,6.85
2022-12-19T09:30:14.710Z,6.33
2022-12-19T09:31:17.624Z,6.88
2022-12-19T09:32:20.458Z,6.85
2022-12-19T09:33:23.488Z,7.08
2022-12-19T09:34:33.114Z,6.45
2022-12-19T09:35:30.844Z,6.59
2022-12-19T09:36:33.706Z,7.43
2022-12-19T09:37:36.778Z,7.53
2022-12-19T09:38:39.766Z,7.13
2022-12-19T09:39:42.850Z,6.97
2022-12-19T09:40:45.608Z,6.58
2022-12-19T09:41:48.476Z,5.85
2022-12-19T09:42:51.369Z,6.52
2022-12-19T09:43:54.231Z,6.37
2022-12-19T09:44:57.720Z,6.58
2022-12-19T09:46:00.635Z,6.42
2022-12-19T09:47:03.369Z,6.75
2022-12-19T09:48:06.148Z,6.55
2022-12-19T09:49:10.451Z,6.41
2022-12-19T09:50:13.633Z,6.65
2022-12-19T09:51:16.304Z,6.21
2022-12-19T09:52:18.869Z,6.27
2022-12-19T09:53:21.534Z,6.35
2022-12-19T09:54:24.212Z,6.80
2022-12-19T09:55:27.790Z,6.52
2022-12-19T09:56:31.373Z,6.24
2022-12-19T09:57:35.174Z,5.73
2022-12-19T09:58:37.967Z,5.76
2022-12-19T09:59:47.674Z,5.89
2022-12-19T10:00:44.840Z,5.32
2022-12-19T10:01:47.879Z,5.62
2022-12-19T10:02:50.920Z,5.76
2022-12-19T10:03:53.902Z,5.31
2022-12-19T10:05:03.738Z,5.84
2022-12-19T10:06:43.118Z,5.51
2022-12-19T10:07:22.149Z,5.84
2022-12-19T10:08:10.652Z,5.49
2022-12-19T10:11:16.780Z,5.12
2022-12-19T10:12:33.099Z,5.38
2022-12-19T10:12:40.989Z,5.36
2022-12-19T10:12:47.303Z,5.94
2022-12-19T10:13:31.115Z,5.39
2022-12-19T10:14:34.089Z,5.05
2022-12-19T10:15:37.441Z,5.35
2022-12-19T10:16:40.450Z,4.89
2022-12-19T10:17:43.247Z,4.95
2022-12-19T10:18:49.772Z,5.08
2022-12-19T10:19:50.807Z,4.80
2022-12-19T10:20:53.692Z,5.33
2022-12-19T10:22:17.685Z,5.41
2022-12-19T10:23:01.903Z,5.27
2022-12-19T10:24:04.771Z,5.39
2022-12-19T10:25:09.217Z,5.21
2022-12-19T10:26:12.365Z,4.97
2022-12-19T10:27:15.552Z,5.14
2022-12-19T10:28:18.427Z,4.87
2022-12-19T10:29:21.108Z,4.95
2022-12-19T10:30:23.900Z,4.89
2022-12-19T10:31:27.261Z,5.05
2022-12-19T10:32:30.371Z,5.86
2022-12-19T10:33:33.516Z,5.51
2022-12-19T10:34:39.768Z,5.67
2022-12-19T10:35:40.690Z,5.05
2022-12-19T10:37:12.822Z,5.15
2022-12-19T10:37:49.909Z,5.67
2022-12-19T10:38:52.702Z,5.46
2022-12-19T10:39:55.360Z,5.79
2022-12-19T10:40:57.926Z,5.30
2022-12-19T10:42:00.851Z,5.25
2022-12-19T10:43:09.376Z,6.22
2022-12-19T10:44:08.195Z,5.33
2022-12-19T10:45:11.075Z,5.56
2022-12-19T10:46:14.005Z,5.79
2022-12-19T10:47:16.612Z,5.15
2022-12-19T10:48:19.733Z,5.32
2022-12-19T10:49:23.512Z,6.36
2022-12-19T10:50:26.182Z,5.17
2022-12-19T10:51:28.859Z,5.15
2022-12-19T10:52:31.404Z,5.55
2022-12-19T10:53:34.117Z,4.86
2022-12-19T10:54:36.745Z,4.70
2022-12-19T10:55:39.298Z,4.71
2022-12-19T10:56:41.961Z,4.99
2022-12-19T10:57:45.144Z,5.80
2022-12-19T10:58:48.568Z,5.35
2022-12-19T10:59:51.309Z,5.06
2022-12-19T11:00:54.684Z,4.82
2022-12-19T11:02:01.207Z,4.55
2022-12-19T11:03:02.455Z,5.09
2022-12-19T11:04:05.593Z,5.21
2022-12-19T11:05:08.515Z,4.45
2022-12-19T11:06:12.643Z,4.52
2022-12-19T11:07:15.818Z,4.43
2022-12-19T11:08:20.180Z,5.11
2022-12-19T11:09:23.362Z,4.60
2022-12-19T11:11:39.442Z,4.64
2022-12-19T11:14:30.777Z,4.52
2022-12-19T11:17:06.618Z,4.40
2022-12-19T11:18:06.037Z,4.52
2022-12-19T11:18:57.971Z,4.59
2022-12-19T11:19:38.234Z,4.91
2022-12-19T11:24:18.584Z,4.28
2022-12-19T11:24:23.724Z,4.31
2022-12-19T11:29:25.596Z,4.60
2022-12-19T11:29:26.778Z,4.56
2022-12-19T11:29:40.457Z,4.75
2022-12-19T11:29:42.130Z,4.94
2022-12-19T11:29:42.533Z,4.71
2022-12-19T11:30:09.325Z,4.11
2022-12-19T11:30:36.277Z,4.97
2022-12-19T11:30:42.986Z,4.88
2022-12-19T11:30:45.724Z,4.74
2022-12-19T11:30:46.428Z,4.64
2022-12-19T11:31:44.184Z,5.24
2022-12-19T11:32:40.264Z,5.07
2022-12-19T11:33:02.069Z,5.06
2022-12-19T11:34:04.908Z,4.95
2022-12-19T11:35:07.455Z,4.74
2022-12-19T11:36:10.221Z,4.84
2022-12-19T11:37:12.890Z,4.78
2022-12-19T11:38:15.764Z,4.89
2022-12-19T11:39:18.933Z,5.12
2022-12-19T11:40:22.734Z,4.54
2022-12-19T11:41:25.407Z,4.20
2022-12-19T11:42:27.979Z,4.29
2022-12-19T11:43:46.856Z,4.78
2022-12-19T11:44:35.354Z,4.97
2022-12-19T11:45:38.249Z,4.38
2022-12-19T11:46:42.156Z,4.89
2022-12-19T11:47:45.019Z,4.84
2022-12-19T11:48:47.886Z,4.75
2022-12-19T11:49:51.166Z,4.44
2022-12-19T11:50:54.161Z,4.95
2022-12-19T11:51:56.937Z,4.42
2022-12-19T11:53:05.096Z,4.41
2022-12-19T11:54:04.004Z,4.60
2022-12-19T11:55:06.669Z,4.94
2022-12-19T11:56:16.409Z,5.19
2022-12-19T11:57:13.549Z,4.79
2022-12-19T11:58:16.318Z,4.62
2022-12-19T11:59:19.392Z,4.80
2022-12-19T12:00:22.566Z,5.09
2022-12-19T12:01:25.588Z,5.16
2022-12-19T12:02:28.837Z,5.07
2022-12-19T12:03:31.708Z,4.96
2022-12-19T12:04:35.049Z,4.90
2022-12-19T12:05:38.073Z,5.00
2022-12-19T12:06:45.328Z,4.66
2022-12-19T12:08:24.644Z,4.47
2022-12-19T12:11:21.522Z,4.75
2022-12-19T12:14:12.051Z,4.49
2022-12-19T12:18:25.554Z,4.84
2022-12-19T12:20:41.743Z,4.94
2022-12-19T12:23:53.831Z,4.45
2022-12-19T12:24:14.165Z,4.89
2022-12-19T12:24:56.205Z,4.33
2022-12-19T12:28:34.986Z,4.97
2022-12-19T12:30:27.593Z,4.74
2022-12-19T12:31:05.234Z,4.73
2022-12-19T12:31:14.531Z,4.58
2022-12-19T12:31:19.292Z,4.63
2022-12-19T12:31:29.545Z,4.51
2022-12-19T12:31:31.852Z,4.57
2022-12-19T12:31:44.835Z,4.58
2022-12-19T12:31:47.161Z,4.97
2022-12-19T12:31:50.627Z,4.65
2022-12-19T12:31:56.041Z,4.67
2022-12-19T12:31:57.752Z,4.34
2022-12-19T12:32:03.191Z,4.43
2022-12-19T12:32:05.403Z,4.61
2022-12-19T12:35:33.434Z,4.24
2022-12-19T12:35:50.036Z,4.49
2022-12-19T12:35:50.920Z,4.58
2022-12-19T12:35:55.108Z,4.54
2022-12-19T12:38:21.056Z,4.38
2022-12-19T12:39:59.530Z,4.95
2022-12-19T12:41:02.514Z,5.59
2022-12-19T12:42:05.681Z,4.45
2022-12-19T12:43:08.866Z,4.36
2022-12-19T12:44:12.097Z,4.76
2022-12-19T12:45:15.132Z,4.95
2022-12-19T12:46:18.082Z,4.84
2022-12-19T12:47:21.014Z,5.24
2022-12-19T12:48:23.760Z,4.85
2022-12-19T12:49:27.361Z,5.32
2022-12-19T12:50:30.233Z,4.95
2022-12-19T12:51:33.001Z,4.68
2022-12-19T12:52:35.880Z,4.53
2022-12-19T12:53:39.145Z,4.60
2022-12-19T12:54:42.229Z,4.95
2022-12-19T12:55:45.614Z,4.81
2022-12-19T12:56:48.895Z,4.58
2022-12-19T12:57:51.871Z,5.02
2022-12-19T12:58:54.944Z,5.01
2022-12-19T12:59:57.737Z,5.30
2022-12-19T13:01:00.548Z,4.97
2022-12-19T13:02:03.590Z,5.45
2022-12-19T13:03:06.732Z,4.29
2022-12-19T13:04:09.623Z,4.54
2022-12-19T13:05:12.424Z,4.52
2022-12-19T13:06:15.408Z,4.72
2022-12-19T13:07:18.161Z,4.85
2022-12-19T13:08:20.828Z,4.75
2022-12-19T13:09:23.595Z,4.91
2022-12-19T13:10:26.480Z,5.04
2022-12-19T13:11:29.849Z,5.58
2022-12-19T13:12:33.144Z,5.46
2022-12-19T13:13:36.317Z,4.72
2022-12-19T13:14:39.499Z,4.80
2022-12-19T13:15:42.496Z,4.95
2022-12-19T13:16:46.036Z,4.62
2022-12-19T13:17:49.430Z,5.00
2022-12-19T13:18:52.633Z,5.43
2022-12-19T13:19:55.627Z,5.43
2022-12-19T13:20:58.406Z,4.67
2022-12-19T13:22:01.668Z,4.85
2022-12-19T13:23:04.851Z,4.85
2022-12-19T13:24:08.028Z,4.93
2022-12-19T13:25:12.678Z,4.46
2022-12-19T13:26:19.664Z,4.68
2022-12-19T13:27:20.070Z,5.06
2022-12-19T13:28:22.944Z,4.84
2022-12-19T13:29:26.028Z,5.38
2022-12-19T13:30:29.138Z,5.06
2022-12-19T13:31:31.804Z,5.17
2022-12-19T13:32:35.025Z,5.18
2022-12-19T13:33:39.353Z,5.42
2022-12-19T13:34:43.520Z,5.58
2022-12-19T13:39:38.980Z,4.69
2022-12-19T13:39:47.738Z,4.76
2022-12-19T13:39:52.180Z,4.99
2022-12-19T13:40:01.315Z,5.01
2022-12-19T13:40:14.187Z,4.73
2022-12-19T13:41:09.909Z,4.80
2022-12-19T13:42:12.790Z,5.27
2022-12-19T13:43:16.054Z,4.72
2022-12-19T13:44:18.748Z,4.69
2022-12-19T13:45:23.239Z,4.83
2022-12-19T13:46:26.435Z,4.91
2022-12-19T13:47:29.323Z,5.25
2022-12-19T13:48:32.400Z,6.01
2022-12-19T13:49:35.630Z,4.38
2022-12-19T13:50:38.449Z,4.94
2022-12-19T13:51:41.329Z,4.52
2022-12-19T13:52:44.509Z,4.81
2022-12-19T13:53:47.600Z,4.98
2022-12-19T13:54:50.753Z,4.82
2022-12-19T13:55:53.724Z,5.18
2022-12-19T13:56:56.703Z,5.19
2022-12-19T13:57:59.796Z,4.70
2022-12-19T13:59:02.960Z,4.74
2022-12-19T14:00:05.934Z,4.51
2022-12-19T14:01:14.938Z,4.52
2022-12-19T14:02:13.767Z,4.87
2022-12-19T14:03:17.368Z,5.11
2022-12-19T14:04:20.329Z,4.93
2022-12-19T14:05:30.613Z,4.85